sensor_id;sensor_type;location;lat;lon;timestamp;P1;durP1;ratioP1;P2;durP2;ratioP2
46210;SDS011;52144;48.040;-1.594;2022-08-01T00:00:48;2.92;;;1.30;;
46210;SDS011;52144;48.040;-1.594;2022-08-01T00:03:15;1.80;;;0.85;;
46210;SDS011;52144;48.040;-1.594;2022-08-01T00:05:43;3.05;;;1.13;;
46210;SDS011;52144;48.040;-1.594;2022-08-01T00:08:12;4.55;;;2.10;;
46210;SDS011;52144;48.040;-1.594;2022-08-01T00:10:40;3.38;;;1.90;;
46210;SDS011;52144;48.040;-1.594;2022-08-01T00:13:09;2.65;;;1.25;;
46210;SDS011;52144;48.040;-1.594;2022-08-01T00:15:37;1.90;;;0.77;;
46210;SDS011;52144;48.040;-1.594;2022-08-01T00:18:05;1.80;;;1.10;;
46210;SDS011;52144;48.040;-1.594;2022-08-01T00:20:33;4.18;;;1.00;;
46210;SDS011;52144;48.040;-1.594;2022-08-01T00:23:02;4.35;;;1.50;;
46210;SDS011;52144;48.040;-1.594;2022-08-01T00:25:30;1.92;;;1.73;;
46210;SDS011;52144;48.040;-1.594;2022-08-01T00:27:59;1.02;;;0.93;;
46210;SDS011;52144;48.040;-1.594;2022-08-01T00:30:30;1.15;;;0.88;;
46210;SDS011;52144;48.040;-1.594;2022-08-01T00:32:58;3.88;;;1.38;;
46210;SDS011;52144;48.040;-1.594;2022-08-01T00:35:26;1.88;;;1.23;;
46210;SDS011;52144;48.040;-1.594;2022-08-01T00:37:54;2.45;;;1.25;;
46210;SDS011;52144;48.040;-1.594;2022-08-01T00:40:22;2.45;;;1.23;;
46210;SDS011;52144;48.040;-1.594;2022-08-01T00:42:50;4.28;;;1.08;;
46210;SDS011;52144;48.040;-1.594;2022-08-01T00:45:17;1.38;;;1.25;;
46210;SDS011;52144;48.040;-1.594;2022-08-01T00:47:47;3.97;;;1.10;;
46210;SDS011;52144;48.040;-1.594;2022-08-01T00:50:20;3.40;;;1.15;;
46210;SDS011;52144;48.040;-1.594;2022-08-01T00:52:50;1.35;;;1.10;;
46210;SDS011;52144;48.040;-1.594;2022-08-01T00:55:18;2.65;;;1.85;;
46210;SDS011;52144;48.040;-1.594;2022-08-01T00:57:47;3.35;;;1.20;;
46210;SDS011;52144;48.040;-1.594;2022-08-01T01:00:32;3.00;;;1.63;;
46210;SDS011;52144;48.040;-1.594;2022-08-01T01:03:20;1.75;;;1.33;;
46210;SDS011;52144;48.040;-1.594;2022-08-01T01:06:22;1.60;;;1.20;;
46210;SDS011;52144;48.040;-1.594;2022-08-01T01:08:57;5.38;;;1.70;;
46210;SDS011;52144;48.040;-1.594;2022-08-01T01:11:32;9.23;;;1.77;;
46210;SDS011;52144;48.040;-1.594;2022-08-01T01:14:08;1.80;;;1.60;;
46210;SDS011;52144;48.040;-1.594;2022-08-01T01:16:40;3.38;;;1.67;;
46210;SDS011;52144;48.040;-1.594;2022-08-01T01:19:13;2.63;;;1.38;;
46210;SDS011;52144;48.040;-1.594;2022-08-01T01:21:55;2.60;;;0.93;;
46210;SDS011;52144;48.040;-1.594;2022-08-01T01:24:37;12.93;;;1.65;;
46210;SDS011;52144;48.040;-1.594;2022-08-01T01:27:21;2.63;;;1.30;;
46210;SDS011;52144;48.040;-1.594;2022-08-01T01:29:58;4.50;;;1.20;;
46210;SDS011;52144;48.040;-1.594;2022-08-01T01:32:28;1.75;;;1.27;;
46210;SDS011;52144;48.040;-1.594;2022-08-01T01:35:01;3.50;;;1.10;;
46210;SDS011;52144;48.040;-1.594;2022-08-01T01:37:32;1.45;;;1.00;;
46210;SDS011;52144;48.040;-1.594;2022-08-01T01:40:01;1.65;;;1.50;;
46210;SDS011;52144;48.040;-1.594;2022-08-01T01:42:31;1.98;;;1.20;;
46210;SDS011;52144;48.040;-1.594;2022-08-01T01:45:02;1.60;;;1.13;;
46210;SDS011;52144;48.040;-1.594;2022-08-01T01:47:31;1.40;;;0.90;;
46210;SDS011;52144;48.040;-1.594;2022-08-01T01:50:00;2.40;;;1.83;;
46210;SDS011;52144;48.040;-1.594;2022-08-01T01:52:31;2.72;;;1.10;;
46210;SDS011;52144;48.040;-1.594;2022-08-01T01:54:59;2.97;;;0.98;;
46210;SDS011;52144;48.040;-1.594;2022-08-01T01:57:32;2.15;;;1.20;;
46210;SDS011;52144;48.040;-1.594;2022-08-01T02:00:06;1.55;;;1.15;;
46210;SDS011;52144;48.040;-1.594;2022-08-01T02:02:35;3.20;;;1.00;;
46210;SDS011;52144;48.040;-1.594;2022-08-01T02:05:05;4.07;;;1.20;;
46210;SDS011;52144;48.040;-1.594;2022-08-01T02:07:34;1.85;;;1.05;;
46210;SDS011;52144;48.040;-1.594;2022-08-01T02:10:04;4.95;;;1.63;;
46210;SDS011;52144;48.040;-1.594;2022-08-01T02:12:35;1.67;;;1.20;;
46210;SDS011;52144;48.040;-1.594;2022-08-01T02:15:07;2.72;;;1.48;;
46210;SDS011;52144;48.040;-1.594;2022-08-01T02:17:37;1.00;;;0.90;;
46210;SDS011;52144;48.040;-1.594;2022-08-01T02:20:09;1.75;;;1.48;;
46210;SDS011;52144;48.040;-1.594;2022-08-01T02:22:40;2.00;;;1.00;;
46210;SDS011;52144;48.040;-1.594;2022-08-01T02:25:14;1.55;;;1.10;;
46210;SDS011;52144;48.040;-1.594;2022-08-01T02:27:51;2.85;;;1.15;;
46210;SDS011;52144;48.040;-1.594;2022-08-01T02:30:28;3.25;;;1.08;;
46210;SDS011;52144;48.040;-1.594;2022-08-01T02:35:32;1.50;;;0.93;;
46210;SDS011;52144;48.040;-1.594;2022-08-01T02:38:22;1.55;;;1.45;;
46210;SDS011;52144;48.040;-1.594;2022-08-01T02:40:53;4.43;;;1.33;;
46210;SDS011;52144;48.040;-1.594;2022-08-01T02:43:25;0.70;;;0.70;;
46210;SDS011;52144;48.040;-1.594;2022-08-01T02:45:57;1.00;;;0.80;;
46210;SDS011;52144;48.040;-1.594;2022-08-01T02:48:28;1.65;;;1.00;;
46210;SDS011;52144;48.040;-1.594;2022-08-01T02:51:00;2.35;;;1.15;;
46210;SDS011;52144;48.040;-1.594;2022-08-01T02:53:31;2.22;;;1.27;;
46210;SDS011;52144;48.040;-1.594;2022-08-01T02:56:10;2.15;;;0.98;;
46210;SDS011;52144;48.040;-1.594;2022-08-01T02:58:40;1.65;;;1.55;;
46210;SDS011;52144;48.040;-1.594;2022-08-01T03:01:12;2.50;;;1.17;;
46210;SDS011;52144;48.040;-1.594;2022-08-01T03:03:41;3.78;;;0.88;;
46210;SDS011;52144;48.040;-1.594;2022-08-01T03:06:09;2.35;;;0.98;;
46210;SDS011;52144;48.040;-1.594;2022-08-01T03:08:38;0.88;;;0.55;;
46210;SDS011;52144;48.040;-1.594;2022-08-01T03:11:06;1.42;;;1.00;;
46210;SDS011;52144;48.040;-1.594;2022-08-01T03:13:35;1.33;;;0.75;;
46210;SDS011;52144;48.040;-1.594;2022-08-01T03:16:05;0.75;;;0.70;;
46210;SDS011;52144;48.040;-1.594;2022-08-01T03:18:34;0.88;;;0.85;;
46210;SDS011;52144;48.040;-1.594;2022-08-01T03:21:04;1.10;;;0.98;;
46210;SDS011;52144;48.040;-1.594;2022-08-01T03:23:34;1.50;;;1.05;;
46210;SDS011;52144;48.040;-1.594;2022-08-01T03:26:04;1.23;;;0.80;;
46210;SDS011;52144;48.040;-1.594;2022-08-01T03:28:33;1.65;;;1.20;;
46210;SDS011;52144;48.040;-1.594;2022-08-01T03:31:01;0.85;;;0.63;;
46210;SDS011;52144;48.040;-1.594;2022-08-01T03:33:29;1.25;;;0.90;;
46210;SDS011;52144;48.040;-1.594;2022-08-01T03:35:59;1.05;;;0.77;;
46210;SDS011;52144;48.040;-1.594;2022-08-01T03:38:29;2.78;;;0.90;;
46210;SDS011;52144;48.040;-1.594;2022-08-01T03:41:02;0.70;;;0.55;;
46210;SDS011;52144;48.040;-1.594;2022-08-01T03:43:35;2.63;;;1.15;;
46210;SDS011;52144;48.040;-1.594;2022-08-01T03:46:09;1.30;;;0.95;;
46210;SDS011;52144;48.040;-1.594;2022-08-01T03:48:40;0.80;;;0.63;;
46210;SDS011;52144;48.040;-1.594;2022-08-01T03:51:15;1.25;;;1.05;;
46210;SDS011;52144;48.040;-1.594;2022-08-01T03:53:45;1.73;;;0.82;;
46210;SDS011;52144;48.040;-1.594;2022-08-01T03:56:16;3.20;;;0.95;;
46210;SDS011;52144;48.040;-1.594;2022-08-01T03:58:46;2.90;;;0.68;;
46210;SDS011;52144;48.040;-1.594;2022-08-01T04:01:15;0.50;;;0.45;;
46210;SDS011;52144;48.040;-1.594;2022-08-01T04:03:45;1.15;;;0.60;;
46210;SDS011;52144;48.040;-1.594;2022-08-01T04:06:13;0.50;;;0.50;;
46210;SDS011;52144;48.040;-1.594;2022-08-01T04:08:43;0.70;;;0.70;;
46210;SDS011;52144;48.040;-1.594;2022-08-01T04:11:23;0.80;;;0.70;;
46210;SDS011;52144;48.040;-1.594;2022-08-01T04:13:52;0.55;;;0.52;;
46210;SDS011;52144;48.040;-1.594;2022-08-01T04:16:20;0.60;;;0.40;;
46210;SDS011;52144;48.040;-1.594;2022-08-01T04:18:49;0.50;;;0.50;;
46210;SDS011;52144;48.040;-1.594;2022-08-01T04:21:17;0.63;;;0.47;;
46210;SDS011;52144;48.040;-1.594;2022-08-01T04:26:20;0.43;;;0.43;;
46210;SDS011;52144;48.040;-1.594;2022-08-01T04:28:49;0.55;;;0.55;;
46210;SDS011;52144;48.040;-1.594;2022-08-01T04:31:21;0.25;;;0.25;;
46210;SDS011;52144;48.040;-1.594;2022-08-01T04:33:52;1.40;;;0.70;;
46210;SDS011;52144;48.040;-1.594;2022-08-01T04:36:23;1.52;;;0.40;;
46210;SDS011;52144;48.040;-1.594;2022-08-01T04:38:55;0.30;;;0.20;;
46210;SDS011;52144;48.040;-1.594;2022-08-01T04:41:26;0.60;;;0.50;;
46210;SDS011;52144;48.040;-1.594;2022-08-01T04:43:57;0.50;;;0.50;;
46210;SDS011;52144;48.040;-1.594;2022-08-01T04:46:26;1.63;;;0.60;;
46210;SDS011;52144;48.040;-1.594;2022-08-01T04:48:55;2.55;;;0.60;;
46210;SDS011;52144;48.040;-1.594;2022-08-01T04:51:24;0.30;;;0.30;;
46210;SDS011;52144;48.040;-1.594;2022-08-01T04:53:51;0.50;;;0.47;;
46210;SDS011;52144;48.040;-1.594;2022-08-01T04:56:21;0.52;;;0.50;;
46210;SDS011;52144;48.040;-1.594;2022-08-01T04:58:48;0.20;;;0.20;;
46210;SDS011;52144;48.040;-1.594;2022-08-01T05:01:47;0.57;;;0.30;;
46210;SDS011;52144;48.040;-1.594;2022-08-01T05:04:16;3.30;;;0.30;;
46210;SDS011;52144;48.040;-1.594;2022-08-01T05:06:44;0.60;;;0.50;;
46210;SDS011;52144;48.040;-1.594;2022-08-01T05:09:13;0.40;;;0.30;;
46210;SDS011;52144;48.040;-1.594;2022-08-01T05:11:42;3.17;;;0.45;;
46210;SDS011;52144;48.040;-1.594;2022-08-01T05:14:10;0.40;;;0.32;;
46210;SDS011;52144;48.040;-1.594;2022-08-01T05:16:38;0.43;;;0.30;;
46210;SDS011;52144;48.040;-1.594;2022-08-01T05:19:05;0.30;;;0.30;;
46210;SDS011;52144;48.040;-1.594;2022-08-01T05:21:34;0.38;;;0.38;;
46210;SDS011;52144;48.040;-1.594;2022-08-01T05:24:02;0.20;;;0.20;;
46210;SDS011;52144;48.040;-1.594;2022-08-01T05:26:32;0.43;;;0.30;;
46210;SDS011;52144;48.040;-1.594;2022-08-01T05:29:01;0.52;;;0.40;;
46210;SDS011;52144;48.040;-1.594;2022-08-01T05:31:29;0.47;;;0.43;;
46210;SDS011;52144;48.040;-1.594;2022-08-01T05:34:00;0.52;;;0.40;;
46210;SDS011;52144;48.040;-1.594;2022-08-01T05:36:28;1.25;;;0.30;;
46210;SDS011;52144;48.040;-1.594;2022-08-01T05:38:56;0.20;;;0.20;;
46210;SDS011;52144;48.040;-1.594;2022-08-01T05:41:24;0.32;;;0.30;;
46210;SDS011;52144;48.040;-1.594;2022-08-01T05:43:54;0.32;;;0.25;;
46210;SDS011;52144;48.040;-1.594;2022-08-01T05:46:21;0.20;;;0.20;;
46210;SDS011;52144;48.040;-1.594;2022-08-01T05:48:52;0.30;;;0.30;;
46210;SDS011;52144;48.040;-1.594;2022-08-01T05:51:21;0.20;;;0.20;;
46210;SDS011;52144;48.040;-1.594;2022-08-01T05:53:48;0.65;;;0.32;;
46210;SDS011;52144;48.040;-1.594;2022-08-01T05:56:16;0.32;;;0.32;;
46210;SDS011;52144;48.040;-1.594;2022-08-01T05:58:44;0.22;;;0.20;;
46210;SDS011;52144;48.040;-1.594;2022-08-01T06:01:13;0.20;;;0.20;;
46210;SDS011;52144;48.040;-1.594;2022-08-01T06:03:41;0.30;;;0.30;;
46210;SDS011;52144;48.040;-1.594;2022-08-01T06:06:10;1.10;;;0.40;;
46210;SDS011;52144;48.040;-1.594;2022-08-01T06:08:37;0.20;;;0.20;;
46210;SDS011;52144;48.040;-1.594;2022-08-01T06:11:05;0.75;;;0.28;;
46210;SDS011;52144;48.040;-1.594;2022-08-01T06:13:34;1.75;;;0.40;;
46210;SDS011;52144;48.040;-1.594;2022-08-01T06:16:15;3.33;;;0.30;;
46210;SDS011;52144;48.040;-1.594;2022-08-01T06:18:43;0.15;;;0.15;;
46210;SDS011;52144;48.040;-1.594;2022-08-01T06:21:11;0.30;;;0.30;;
46210;SDS011;52144;48.040;-1.594;2022-08-01T06:23:38;0.30;;;0.30;;
46210;SDS011;52144;48.040;-1.594;2022-08-01T06:26:07;0.40;;;0.40;;
46210;SDS011;52144;48.040;-1.594;2022-08-01T06:28:35;1.35;;;0.43;;
46210;SDS011;52144;48.040;-1.594;2022-08-01T06:31:03;0.50;;;0.40;;
46210;SDS011;52144;48.040;-1.594;2022-08-01T06:33:33;0.40;;;0.40;;
46210;SDS011;52144;48.040;-1.594;2022-08-01T06:36:00;0.30;;;0.30;;
46210;SDS011;52144;48.040;-1.594;2022-08-01T06:38:28;0.45;;;0.30;;
46210;SDS011;52144;48.040;-1.594;2022-08-01T06:40:56;0.57;;;0.47;;
46210;SDS011;52144;48.040;-1.594;2022-08-01T06:43:24;1.55;;;0.35;;
46210;SDS011;52144;48.040;-1.594;2022-08-01T06:45:52;0.30;;;0.30;;
46210;SDS011;52144;48.040;-1.594;2022-08-01T06:48:19;0.63;;;0.43;;
46210;SDS011;52144;48.040;-1.594;2022-08-01T06:50:49;0.25;;;0.25;;
46210;SDS011;52144;48.040;-1.594;2022-08-01T06:53:34;0.30;;;0.30;;
46210;SDS011;52144;48.040;-1.594;2022-08-01T06:56:03;2.97;;;0.77;;
46210;SDS011;52144;48.040;-1.594;2022-08-01T06:58:31;0.30;;;0.30;;
46210;SDS011;52144;48.040;-1.594;2022-08-01T07:01:00;0.60;;;0.50;;
46210;SDS011;52144;48.040;-1.594;2022-08-01T07:03:30;0.47;;;0.38;;
46210;SDS011;52144;48.040;-1.594;2022-08-01T07:06:19;0.30;;;0.30;;
46210;SDS011;52144;48.040;-1.594;2022-08-01T07:08:47;0.32;;;0.32;;
46210;SDS011;52144;48.040;-1.594;2022-08-01T07:11:15;0.30;;;0.30;;
46210;SDS011;52144;48.040;-1.594;2022-08-01T07:13:43;0.20;;;0.20;;
46210;SDS011;52144;48.040;-1.594;2022-08-01T07:16:11;1.67;;;0.30;;
46210;SDS011;52144;48.040;-1.594;2022-08-01T07:18:40;0.70;;;0.40;;
46210;SDS011;52144;48.040;-1.594;2022-08-01T07:21:08;1.55;;;0.28;;
46210;SDS011;52144;48.040;-1.594;2022-08-01T07:23:57;0.10;;;0.10;;
46210;SDS011;52144;48.040;-1.594;2022-08-01T07:26:25;0.28;;;0.28;;
46210;SDS011;52144;48.040;-1.594;2022-08-01T07:28:53;0.40;;;0.35;;
46210;SDS011;52144;48.040;-1.594;2022-08-01T07:31:21;0.20;;;0.20;;
46210;SDS011;52144;48.040;-1.594;2022-08-01T07:33:54;0.22;;;0.22;;
46210;SDS011;52144;48.040;-1.594;2022-08-01T07:36:22;0.25;;;0.25;;
46210;SDS011;52144;48.040;-1.594;2022-08-01T07:38:50;0.73;;;0.43;;
46210;SDS011;52144;48.040;-1.594;2022-08-01T07:41:19;0.20;;;0.20;;
46210;SDS011;52144;48.040;-1.594;2022-08-01T07:44:07;0.30;;;0.30;;
46210;SDS011;52144;48.040;-1.594;2022-08-01T07:46:35;0.43;;;0.30;;
46210;SDS011;52144;48.040;-1.594;2022-08-01T07:49:03;0.20;;;0.20;;
46210;SDS011;52144;48.040;-1.594;2022-08-01T07:51:31;0.22;;;0.22;;
46210;SDS011;52144;48.040;-1.594;2022-08-01T07:53:59;0.20;;;0.17;;
46210;SDS011;52144;48.040;-1.594;2022-08-01T07:56:28;0.20;;;0.20;;
46210;SDS011;52144;48.040;-1.594;2022-08-01T07:58:56;0.08;;;0.05;;
46210;SDS011;52144;48.040;-1.594;2022-08-01T08:01:23;0.22;;;0.22;;
46210;SDS011;52144;48.040;-1.594;2022-08-01T08:03:52;0.28;;;0.28;;
46210;SDS011;52144;48.040;-1.594;2022-08-01T08:06:20;0.50;;;0.17;;
46210;SDS011;52144;48.040;-1.594;2022-08-01T08:08:48;0.20;;;0.20;;
46210;SDS011;52144;48.040;-1.594;2022-08-01T08:11:16;0.10;;;0.10;;
46210;SDS011;52144;48.040;-1.594;2022-08-01T08:13:46;0.20;;;0.20;;
46210;SDS011;52144;48.040;-1.594;2022-08-01T08:16:15;1.05;;;0.28;;
46210;SDS011;52144;48.040;-1.594;2022-08-01T08:18:44;0.30;;;0.30;;
46210;SDS011;52144;48.040;-1.594;2022-08-01T08:21:12;0.20;;;0.20;;
46210;SDS011;52144;48.040;-1.594;2022-08-01T08:23:40;0.32;;;0.32;;
46210;SDS011;52144;48.040;-1.594;2022-08-01T08:26:26;0.13;;;0.10;;
46210;SDS011;52144;48.040;-1.594;2022-08-01T08:28:55;0.20;;;0.20;;
46210;SDS011;52144;48.040;-1.594;2022-08-01T08:31:23;0.32;;;0.25;;
46210;SDS011;52144;48.040;-1.594;2022-08-01T08:34:11;0.20;;;0.20;;
46210;SDS011;52144;48.040;-1.594;2022-08-01T08:36:41;0.10;;;0.10;;
46210;SDS011;52144;48.040;-1.594;2022-08-01T08:39:13;0.97;;;0.40;;
46210;SDS011;52144;48.040;-1.594;2022-08-01T08:41:44;0.70;;;0.40;;
46210;SDS011;52144;48.040;-1.594;2022-08-01T08:44:16;2.55;;;0.20;;
46210;SDS011;52144;48.040;-1.594;2022-08-01T08:46:46;0.70;;;0.32;;
46210;SDS011;52144;48.040;-1.594;2022-08-01T08:49:18;0.20;;;0.20;;
46210;SDS011;52144;48.040;-1.594;2022-08-01T08:51:48;0.38;;;0.38;;
46210;SDS011;52144;48.040;-1.594;2022-08-01T08:54:18;0.57;;;0.30;;
46210;SDS011;52144;48.040;-1.594;2022-08-01T08:56:57;0.20;;;0.20;;
46210;SDS011;52144;48.040;-1.594;2022-08-01T08:59:27;0.20;;;0.20;;
46210;SDS011;52144;48.040;-1.594;2022-08-01T09:01:56;0.22;;;0.15;;
46210;SDS011;52144;48.040;-1.594;2022-08-01T09:04:24;0.30;;;0.30;;
46210;SDS011;52144;48.040;-1.594;2022-08-01T09:06:53;0.45;;;0.40;;
46210;SDS011;52144;48.040;-1.594;2022-08-01T09:09:21;0.30;;;0.30;;
46210;SDS011;52144;48.040;-1.594;2022-08-01T09:11:50;0.45;;;0.30;;
46210;SDS011;52144;48.040;-1.594;2022-08-01T09:14:23;0.50;;;0.25;;
46210;SDS011;52144;48.040;-1.594;2022-08-01T09:17:02;1.85;;;0.40;;
46210;SDS011;52144;48.040;-1.594;2022-08-01T09:19:36;0.30;;;0.30;;
46210;SDS011;52144;48.040;-1.594;2022-08-01T09:22:07;1.60;;;0.30;;
46210;SDS011;52144;48.040;-1.594;2022-08-01T09:24:36;0.30;;;0.30;;
46210;SDS011;52144;48.040;-1.594;2022-08-01T09:27:15;0.40;;;0.40;;
46210;SDS011;52144;48.040;-1.594;2022-08-01T09:29:47;0.40;;;0.30;;
46210;SDS011;52144;48.040;-1.594;2022-08-01T09:32:28;0.38;;;0.28;;
46210;SDS011;52144;48.040;-1.594;2022-08-01T09:40:49;0.20;;;0.20;;
46210;SDS011;52144;48.040;-1.594;2022-08-01T09:43:19;0.20;;;0.20;;
46210;SDS011;52144;48.040;-1.594;2022-08-01T09:45:50;0.30;;;0.30;;
46210;SDS011;52144;48.040;-1.594;2022-08-01T09:48:21;0.35;;;0.35;;
46210;SDS011;52144;48.040;-1.594;2022-08-01T09:50:54;0.50;;;0.38;;
46210;SDS011;52144;48.040;-1.594;2022-08-01T09:53:42;0.75;;;0.28;;
46210;SDS011;52144;48.040;-1.594;2022-08-01T09:56:18;0.65;;;0.43;;
46210;SDS011;52144;48.040;-1.594;2022-08-01T09:58:51;0.45;;;0.40;;
46210;SDS011;52144;48.040;-1.594;2022-08-01T10:01:26;1.30;;;0.40;;
46210;SDS011;52144;48.040;-1.594;2022-08-01T10:04:05;3.65;;;0.30;;
46210;SDS011;52144;48.040;-1.594;2022-08-01T10:06:37;0.43;;;0.38;;
46210;SDS011;52144;48.040;-1.594;2022-08-01T10:09:06;1.20;;;1.10;;
46210;SDS011;52144;48.040;-1.594;2022-08-01T10:11:35;0.45;;;0.43;;
46210;SDS011;52144;48.040;-1.594;2022-08-01T10:14:05;0.70;;;0.60;;
46210;SDS011;52144;48.040;-1.594;2022-08-01T10:16:35;0.40;;;0.38;;
46210;SDS011;52144;48.040;-1.594;2022-08-01T10:19:06;0.60;;;0.35;;
46210;SDS011;52144;48.040;-1.594;2022-08-01T10:21:40;0.25;;;0.25;;
46210;SDS011;52144;48.040;-1.594;2022-08-01T10:24:25;0.22;;;0.22;;
46210;SDS011;52144;48.040;-1.594;2022-08-01T10:26:56;0.60;;;0.57;;
46210;SDS011;52144;48.040;-1.594;2022-08-01T10:29:39;1.27;;;0.68;;
46210;SDS011;52144;48.040;-1.594;2022-08-01T10:32:12;0.30;;;0.30;;
46210;SDS011;52144;48.040;-1.594;2022-08-01T10:34:42;0.85;;;0.57;;
46210;SDS011;52144;48.040;-1.594;2022-08-01T10:37:10;0.40;;;0.40;;
46210;SDS011;52144;48.040;-1.594;2022-08-01T10:39:41;3.58;;;0.52;;
46210;SDS011;52144;48.040;-1.594;2022-08-01T10:42:11;2.15;;;0.70;;
46210;SDS011;52144;48.040;-1.594;2022-08-01T10:44:41;1.65;;;0.40;;
46210;SDS011;52144;48.040;-1.594;2022-08-01T10:47:14;0.75;;;0.75;;
46210;SDS011;52144;48.040;-1.594;2022-08-01T10:49:56;0.85;;;0.70;;
46210;SDS011;52144;48.040;-1.594;2022-08-01T10:52:29;0.75;;;0.40;;
46210;SDS011;52144;48.040;-1.594;2022-08-01T10:55:05;0.73;;;0.73;;
46210;SDS011;52144;48.040;-1.594;2022-08-01T10:57:41;0.70;;;0.50;;
46210;SDS011;52144;48.040;-1.594;2022-08-01T11:00:18;1.33;;;0.55;;
46210;SDS011;52144;48.040;-1.594;2022-08-01T11:02:56;0.50;;;0.30;;
46210;SDS011;52144;48.040;-1.594;2022-08-01T11:05:30;1.95;;;0.30;;
46210;SDS011;52144;48.040;-1.594;2022-08-01T11:10:31;0.75;;;0.50;;
46210;SDS011;52144;48.040;-1.594;2022-08-01T11:13:05;2.90;;;0.70;;
46210;SDS011;52144;48.040;-1.594;2022-08-01T11:15:34;0.68;;;0.50;;
46210;SDS011;52144;48.040;-1.594;2022-08-01T11:18:31;0.85;;;0.55;;
46210;SDS011;52144;48.040;-1.594;2022-08-01T11:21:04;0.68;;;0.60;;
46210;SDS011;52144;48.040;-1.594;2022-08-01T11:23:52;1.08;;;0.47;;
46210;SDS011;52144;48.040;-1.594;2022-08-01T11:26:23;0.40;;;0.40;;
46210;SDS011;52144;48.040;-1.594;2022-08-01T11:29:11;0.70;;;0.52;;
46210;SDS011;52144;48.040;-1.594;2022-08-01T11:31:47;0.70;;;0.50;;
46210;SDS011;52144;48.040;-1.594;2022-08-01T11:34:15;0.93;;;0.40;;
46210;SDS011;52144;48.040;-1.594;2022-08-01T11:36:44;0.85;;;0.60;;
46210;SDS011;52144;48.040;-1.594;2022-08-01T11:39:28;2.25;;;1.02;;
46210;SDS011;52144;48.040;-1.594;2022-08-01T11:42:17;0.85;;;0.77;;
46210;SDS011;52144;48.040;-1.594;2022-08-01T11:44:49;0.55;;;0.47;;
46210;SDS011;52144;48.040;-1.594;2022-08-01T11:47:17;0.75;;;0.52;;
46210;SDS011;52144;48.040;-1.594;2022-08-01T11:49:48;1.27;;;0.60;;
46210;SDS011;52144;48.040;-1.594;2022-08-01T11:52:26;1.17;;;0.70;;
46210;SDS011;52144;48.040;-1.594;2022-08-01T11:54:56;1.77;;;1.13;;
46210;SDS011;52144;48.040;-1.594;2022-08-01T11:57:25;2.83;;;0.80;;
46210;SDS011;52144;48.040;-1.594;2022-08-01T12:00:02;1.33;;;0.80;;
46210;SDS011;52144;48.040;-1.594;2022-08-01T12:02:34;0.50;;;0.50;;
46210;SDS011;52144;48.040;-1.594;2022-08-01T12:05:04;0.60;;;0.60;;
46210;SDS011;52144;48.040;-1.594;2022-08-01T12:07:39;1.35;;;0.90;;
46210;SDS011;52144;48.040;-1.594;2022-08-01T12:10:08;1.13;;;0.90;;
46210;SDS011;52144;48.040;-1.594;2022-08-01T12:12:42;1.83;;;0.90;;
46210;SDS011;52144;48.040;-1.594;2022-08-01T12:15:11;2.63;;;0.77;;
46210;SDS011;52144;48.040;-1.594;2022-08-01T12:17:40;1.73;;;0.82;;
46210;SDS011;52144;48.040;-1.594;2022-08-01T12:20:24;2.08;;;0.73;;
46210;SDS011;52144;48.040;-1.594;2022-08-01T12:22:58;1.02;;;0.85;;
46210;SDS011;52144;48.040;-1.594;2022-08-01T12:25:27;1.65;;;0.85;;
46210;SDS011;52144;48.040;-1.594;2022-08-01T12:27:58;2.40;;;1.00;;
46210;SDS011;52144;48.040;-1.594;2022-08-01T12:30:27;3.45;;;0.80;;
46210;SDS011;52144;48.040;-1.594;2022-08-01T12:32:57;1.08;;;0.98;;
46210;SDS011;52144;48.040;-1.594;2022-08-01T12:35:25;1.38;;;1.00;;
46210;SDS011;52144;48.040;-1.594;2022-08-01T12:37:55;2.40;;;0.95;;
46210;SDS011;52144;48.040;-1.594;2022-08-01T12:40:26;1.60;;;0.93;;
46210;SDS011;52144;48.040;-1.594;2022-08-01T12:42:56;0.57;;;0.57;;
46210;SDS011;52144;48.040;-1.594;2022-08-01T12:45:25;4.22;;;0.57;;
46210;SDS011;52144;48.040;-1.594;2022-08-01T12:47:56;1.58;;;0.65;;
46210;SDS011;52144;48.040;-1.594;2022-08-01T12:50:26;0.60;;;0.52;;
46210;SDS011;52144;48.040;-1.594;2022-08-01T12:52:57;0.90;;;0.63;;
46210;SDS011;52144;48.040;-1.594;2022-08-01T12:55:27;4.60;;;0.75;;
46210;SDS011;52144;48.040;-1.594;2022-08-01T12:58:03;0.75;;;0.75;;
46210;SDS011;52144;48.040;-1.594;2022-08-01T13:00:40;2.13;;;0.95;;
46210;SDS011;52144;48.040;-1.594;2022-08-01T13:03:10;1.83;;;1.05;;
46210;SDS011;52144;48.040;-1.594;2022-08-01T13:05:41;1.48;;;0.93;;
46210;SDS011;52144;48.040;-1.594;2022-08-01T13:08:13;0.95;;;0.77;;
46210;SDS011;52144;48.040;-1.594;2022-08-01T13:10:43;0.95;;;0.85;;
46210;SDS011;52144;48.040;-1.594;2022-08-01T13:13:12;1.45;;;0.77;;
46210;SDS011;52144;48.040;-1.594;2022-08-01T13:16:02;2.20;;;1.00;;
46210;SDS011;52144;48.040;-1.594;2022-08-01T13:18:32;1.02;;;0.73;;
46210;SDS011;52144;48.040;-1.594;2022-08-01T13:21:07;4.00;;;1.00;;
46210;SDS011;52144;48.040;-1.594;2022-08-01T13:23:37;1.13;;;0.80;;
46210;SDS011;52144;48.040;-1.594;2022-08-01T13:26:38;2.08;;;0.75;;
46210;SDS011;52144;48.040;-1.594;2022-08-01T13:29:07;1.47;;;1.10;;
46210;SDS011;52144;48.040;-1.594;2022-08-01T13:31:36;2.70;;;0.85;;
46210;SDS011;52144;48.040;-1.594;2022-08-01T13:34:05;1.38;;;0.73;;
46210;SDS011;52144;48.040;-1.594;2022-08-01T13:36:33;0.98;;;0.77;;
46210;SDS011;52144;48.040;-1.594;2022-08-01T13:39:02;1.17;;;0.85;;
46210;SDS011;52144;48.040;-1.594;2022-08-01T13:41:50;0.55;;;0.52;;
46210;SDS011;52144;48.040;-1.594;2022-08-01T13:44:18;1.40;;;0.90;;
46210;SDS011;52144;48.040;-1.594;2022-08-01T13:46:47;0.68;;;0.63;;
46210;SDS011;52144;48.040;-1.594;2022-08-01T13:49:16;1.20;;;0.80;;
46210;SDS011;52144;48.040;-1.594;2022-08-01T13:51:45;1.17;;;0.82;;
46210;SDS011;52144;48.040;-1.594;2022-08-01T13:54:16;1.33;;;0.98;;
46210;SDS011;52144;48.040;-1.594;2022-08-01T13:56:44;2.33;;;0.80;;
46210;SDS011;52144;48.040;-1.594;2022-08-01T13:59:13;0.93;;;0.90;;
46210;SDS011;52144;48.040;-1.594;2022-08-01T14:01:41;2.45;;;1.00;;
46210;SDS011;52144;48.040;-1.594;2022-08-01T14:04:09;0.70;;;0.60;;
46210;SDS011;52144;48.040;-1.594;2022-08-01T14:06:38;2.03;;;0.70;;
46210;SDS011;52144;48.040;-1.594;2022-08-01T14:09:07;0.65;;;0.65;;
46210;SDS011;52144;48.040;-1.594;2022-08-01T14:11:43;1.35;;;0.90;;
46210;SDS011;52144;48.040;-1.594;2022-08-01T14:14:13;3.35;;;0.60;;
46210;SDS011;52144;48.040;-1.594;2022-08-01T14:16:42;0.90;;;0.80;;
46210;SDS011;52144;48.040;-1.594;2022-08-01T14:19:13;0.65;;;0.65;;
46210;SDS011;52144;48.040;-1.594;2022-08-01T14:21:48;3.20;;;0.88;;
46210;SDS011;52144;48.040;-1.594;2022-08-01T14:24:18;0.50;;;0.50;;
46210;SDS011;52144;48.040;-1.594;2022-08-01T14:26:46;1.25;;;0.82;;
46210;SDS011;52144;48.040;-1.594;2022-08-01T14:29:17;0.77;;;0.77;;
46210;SDS011;52144;48.040;-1.594;2022-08-01T14:31:45;2.03;;;0.65;;
46210;SDS011;52144;48.040;-1.594;2022-08-01T14:34:13;1.30;;;1.02;;
46210;SDS011;52144;48.040;-1.594;2022-08-01T14:36:42;1.15;;;0.80;;
46210;SDS011;52144;48.040;-1.594;2022-08-01T14:39:11;1.02;;;0.75;;
46210;SDS011;52144;48.040;-1.594;2022-08-01T14:41:40;1.48;;;0.90;;
46210;SDS011;52144;48.040;-1.594;2022-08-01T14:44:10;1.40;;;0.80;;
46210;SDS011;52144;48.040;-1.594;2022-08-01T14:46:40;0.70;;;0.70;;
46210;SDS011;52144;48.040;-1.594;2022-08-01T14:49:23;0.47;;;0.47;;
46210;SDS011;52144;48.040;-1.594;2022-08-01T14:51:52;1.20;;;1.10;;
46210;SDS011;52144;48.040;-1.594;2022-08-01T14:54:20;1.30;;;0.95;;
46210;SDS011;52144;48.040;-1.594;2022-08-01T14:56:55;2.22;;;0.80;;
46210;SDS011;52144;48.040;-1.594;2022-08-01T14:59:23;1.15;;;0.90;;
46210;SDS011;52144;48.040;-1.594;2022-08-01T15:01:53;0.75;;;0.68;;
46210;SDS011;52144;48.040;-1.594;2022-08-01T15:04:21;0.88;;;0.73;;
46210;SDS011;52144;48.040;-1.594;2022-08-01T15:06:49;1.00;;;0.80;;
46210;SDS011;52144;48.040;-1.594;2022-08-01T15:09:17;0.70;;;0.60;;
46210;SDS011;52144;48.040;-1.594;2022-08-01T15:11:45;0.60;;;0.60;;